createdAt,value
2022-08-04T00:01:53.324Z,2.13
2022-08-04T00:04:32.551Z,1.85
2022-08-04T00:07:44.078Z,2.00
2022-08-04T00:10:09.846Z,1.70
2022-08-04T00:12:42.419Z,2.10
2022-08-04T00:15:15.044Z,2.08
2022-08-04T00:17:50.941Z,1.77
2022-08-04T00:20:19.883Z,1.95
2022-08-04T00:22:52.017Z,2.38
2022-08-04T00:25:19.928Z,1.90
2022-08-04T00:27:47.371Z,3.03
2022-08-04T00:30:14.099Z,1.67
2022-08-04T00:32:41.502Z,1.65
2022-08-04T00:35:14.258Z,2.10
2022-08-04T00:37:43.984Z,2.00
2022-08-04T00:40:34.970Z,1.90
2022-08-04T00:43:21.448Z,3.35
2022-08-04T00:46:25.975Z,2.22
2022-08-04T00:48:55.496Z,2.22
2022-08-04T00:51:32.559Z,1.98
2022-08-04T00:54:08.395Z,2.28
2022-08-04T00:56:37.857Z,2.00
2022-08-04T00:59:29.595Z,2.45
2022-08-04T01:02:00.499Z,1.80
2022-08-04T01:04:27.192Z,1.52
2022-08-04T01:07:10.466Z,2.03
2022-08-04T01:09:51.124Z,2.20
2022-08-04T01:12:43.461Z,3.05
2022-08-04T01:15:31.469Z,2.45
2022-08-04T01:18:27.411Z,1.77
2022-08-04T01:21:21.011Z,2.22
2022-08-04T01:24:16.952Z,1.85
2022-08-04T01:27:06.782Z,2.22
2022-08-04T01:29:55.686Z,1.85
2022-08-04T01:32:35.283Z,2.97
2022-08-04T01:35:10.728Z,1.75
2022-08-04T01:38:02.656Z,1.65
2022-08-04T01:40:50.450Z,2.38
2022-08-04T01:43:21.368Z,1.30
2022-08-04T01:45:58.113Z,2.25
2022-08-04T01:48:26.219Z,1.90
2022-08-04T01:50:56.724Z,1.85
2022-08-04T01:53:29.827Z,3.20
2022-08-04T01:55:57.731Z,2.15
2022-08-04T01:58:26.629Z,1.50
2022-08-04T02:00:58.236Z,2.47
2022-08-04T02:04:20.674Z,2.38
2022-08-04T02:06:26.044Z,2.03
2022-08-04T02:09:10.568Z,1.98
2022-08-04T02:11:38.469Z,1.75
2022-08-04T02:14:45.364Z,2.25
2022-08-04T02:17:26.277Z,2.00
2022-08-04T02:20:28.322Z,1.67
2022-08-04T02:23:05.655Z,1.88
2022-08-04T02:25:43.301Z,1.73
2022-08-04T02:28:18.624Z,1.90
2022-08-04T02:31:00.392Z,1.73
2022-08-04T02:33:35.184Z,2.25
2022-08-04T02:36:04.371Z,1.90
2022-08-04T02:38:42.858Z,2.08
2022-08-04T02:41:11.275Z,2.17
2022-08-04T02:43:51.642Z,2.67
2022-08-04T02:46:21.027Z,2.00
2022-08-04T02:48:49.260Z,2.17
2022-08-04T02:51:20.063Z,1.75
2022-08-04T02:53:50.917Z,1.83
2022-08-04T02:56:21.585Z,1.88
2022-08-04T02:59:03.327Z,2.38
2022-08-04T03:01:31.275Z,1.60
2022-08-04T03:04:24.689Z,1.80
2022-08-04T03:07:33.717Z,2.20
2022-08-04T03:10:44.932Z,1.85
2022-08-04T03:13:39.676Z,1.58
2022-08-04T03:16:21.335Z,2.00
2022-08-04T03:19:08.989Z,2.22
2022-08-04T03:22:13.344Z,2.08
2022-08-04T03:25:28.244Z,2.47
2022-08-04T03:28:33.442Z,2.58
2022-08-04T03:31:02.912Z,2.22
2022-08-04T03:33:48.666Z,2.15
2022-08-04T03:36:44.603Z,1.90
2022-08-04T03:39:23.216Z,1.77
2022-08-04T03:42:12.046Z,1.83
2022-08-04T03:44:49.950Z,2.83
2022-08-04T03:47:35.791Z,3.45
2022-08-04T03:50:21.980Z,2.45
2022-08-04T03:53:09.745Z,2.35
2022-08-04T03:56:04.283Z,2.60
2022-08-04T03:58:37.397Z,2.40
2022-08-04T04:01:19.030Z,1.80
2022-08-04T04:04:09.419Z,2.40
2022-08-04T04:06:58.258Z,2.45
2022-08-04T04:09:52.296Z,2.80
2022-08-04T04:12:42.719Z,2.00
2022-08-04T04:15:24.763Z,2.25
2022-08-04T04:18:13.185Z,1.92
2022-08-04T04:21:03.867Z,2.33
2022-08-04T04:23:52.661Z,2.10
2022-08-04T04:27:01.556Z,2.28
2022-08-04T04:29:42.544Z,2.78
2022-08-04T04:32:09.315Z,2.40
2022-08-04T04:35:05.943Z,2.22
2022-08-04T04:37:32.736Z,3.38
2022-08-04T04:39:59.741Z,2.70
2022-08-04T04:42:59.297Z,2.63
2022-08-04T04:45:58.009Z,1.70
2022-08-04T04:48:38.684Z,2.10
2022-08-04T04:51:19.574Z,1.83
2022-08-04T04:54:37.524Z,2.65
2022-08-04T04:57:14.784Z,2.92
2022-08-04T04:59:56.007Z,2.50
2022-08-04T05:02:41.168Z,2.53
2022-08-04T05:05:31.001Z,4.47
2022-08-04T05:08:44.436Z,2.15
2022-08-04T05:11:49.894Z,2.20
2022-08-04T05:14:47.735Z,2.50
2022-08-04T05:17:40.858Z,2.40
2022-08-04T05:20:15.383Z,2.30
2022-08-04T05:22:55.044Z,2.45
2022-08-04T05:25:31.923Z,2.70
2022-08-04T05:28:10.001Z,2.40
2022-08-04T05:30:50.843Z,2.90
2022-08-04T05:33:42.817Z,2.78
2022-08-04T05:36:21.812Z,2.42
2022-08-04T05:38:59.767Z,2.40
2022-08-04T05:41:44.983Z,2.80
2022-08-04T05:44:15.173Z,3.00
2022-08-04T05:46:43.781Z,2.92
2022-08-04T05:49:11.366Z,2.88
2022-08-04T05:51:47.174Z,2.28
2022-08-04T05:54:15.072Z,2.65
2022-08-04T05:56:43.075Z,2.58
2022-08-04T05:59:11.491Z,3.05
2022-08-04T06:01:55.859Z,2.38
2022-08-04T06:04:25.777Z,2.35
2022-08-04T06:06:53.697Z,2.58
2022-08-04T06:09:23.632Z,2.47
2022-08-04T06:12:03.317Z,2.20
2022-08-04T06:14:38.828Z,2.40
2022-08-04T06:18:33.751Z,2.65
2022-08-04T06:20:02.709Z,3.25
2022-08-04T06:22:43.736Z,3.00
2022-08-04T06:25:12.381Z,3.03
2022-08-04T06:27:40.070Z,3.05
2022-08-04T06:30:10.359Z,3.45
2022-08-04T06:32:47.593Z,2.78
2022-08-04T06:35:18.189Z,2.45
2022-08-04T06:37:46.907Z,2.97
2022-08-04T06:40:29.395Z,2.83
2022-08-04T06:42:57.656Z,3.03
2022-08-04T06:45:25.568Z,2.72
2022-08-04T06:47:54.153Z,3.35
2022-08-04T06:51:26.384Z,2.88
2022-08-04T06:53:09.659Z,3.50
2022-08-04T06:55:37.612Z,3.17
2022-08-04T06:58:05.762Z,2.67
2022-08-04T07:00:33.469Z,2.78
2022-08-04T07:03:00.925Z,3.97
2022-08-04T07:05:28.395Z,2.83
2022-08-04T07:07:57.826Z,3.10
2022-08-04T07:10:27.596Z,3.38
2022-08-04T07:12:55.596Z,4.15
2022-08-04T07:15:23.894Z,3.10
2022-08-04T07:17:52.312Z,3.30
2022-08-04T07:20:35.317Z,3.17
2022-08-04T07:23:05.200Z,2.97
2022-08-04T07:26:00.914Z,3.50
2022-08-04T07:28:20.551Z,3.00
2022-08-04T07:30:48.887Z,3.25
2022-08-04T07:33:19.295Z,2.80
2022-08-04T07:36:08.961Z,3.20
2022-08-04T07:38:37.953Z,3.00
2022-08-04T07:41:36.194Z,3.33
2022-08-04T07:44:04.472Z,3.00
2022-08-04T07:46:31.863Z,3.20
2022-08-04T07:49:00.571Z,3.15
2022-08-04T07:51:28.578Z,3.55
2022-08-04T07:53:56.883Z,3.10
2022-08-04T07:56:24.204Z,2.97
2022-08-04T07:58:51.334Z,3.10
2022-08-04T08:01:20.144Z,2.90
2022-08-04T08:03:48.079Z,3.13
2022-08-04T08:06:31.609Z,3.20
2022-08-04T08:09:12.309Z,3.88
2022-08-04T08:12:36.926Z,4.38
2022-08-04T08:14:30.643Z,3.85
2022-08-04T08:16:59.267Z,3.38
2022-08-04T08:19:26.434Z,3.17
2022-08-04T08:21:58.639Z,3.22
2022-08-04T08:24:27.491Z,3.67
2022-08-04T08:26:55.957Z,3.65
2022-08-04T08:29:24.150Z,3.47
2022-08-04T08:31:56.532Z,4.47
2022-08-04T08:34:27.615Z,4.00
2022-08-04T08:37:06.759Z,3.53
2022-08-04T08:39:36.898Z,4.22
2022-08-04T08:42:10.053Z,5.57
2022-08-04T08:44:39.988Z,5.05
2022-08-04T08:47:25.194Z,4.25
2022-08-04T08:50:01.126Z,4.38
2022-08-04T08:53:01.613Z,4.72
2022-08-04T08:55:24.822Z,5.68
2022-08-04T08:58:08.274Z,4.88
2022-08-04T09:00:50.604Z,4.50
2022-08-04T09:03:24.947Z,3.60
2022-08-04T09:06:15.399Z,3.42
2022-08-04T09:09:01.741Z,3.60
2022-08-04T09:11:33.565Z,3.22
2022-08-04T09:14:18.074Z,4.22
2022-08-04T09:16:52.090Z,3.72
2022-08-04T09:19:38.750Z,3.70
2022-08-04T09:22:10.718Z,3.67
2022-08-04T09:25:08.041Z,4.38
2022-08-04T09:27:55.539Z,3.63
2022-08-04T09:30:24.694Z,2.90
2022-08-04T09:33:01.596Z,3.17
2022-08-04T09:35:47.454Z,3.08
2022-08-04T09:38:36.134Z,2.90
2022-08-04T09:41:19.806Z,3.00
2022-08-04T09:44:48.767Z,2.40
2022-08-04T09:46:57.006Z,2.60
2022-08-04T09:49:37.261Z,2.60
2022-08-04T09:52:23.583Z,2.80
2022-08-04T09:55:00.153Z,2.70
2022-08-04T09:57:34.614Z,2.63
2022-08-04T10:00:08.069Z,2.28
2022-08-04T10:02:38.528Z,2.95
2022-08-04T10:05:08.025Z,2.60
2022-08-04T10:07:35.139Z,2.40
2022-08-04T10:10:04.803Z,2.00
2022-08-04T10:12:35.197Z,2.22
2022-08-04T10:15:15.669Z,2.22
2022-08-04T10:17:54.735Z,2.28
2022-08-04T10:20:45.806Z,2.05
2022-08-04T10:23:32.419Z,2.30
2022-08-04T10:26:19.523Z,2.42
2022-08-04T10:28:57.408Z,2.20
2022-08-04T10:31:28.680Z,2.53
2022-08-04T10:34:01.312Z,2.25
2022-08-04T10:36:31.103Z,2.50
2022-08-04T10:39:02.596Z,2.08
2022-08-04T10:41:32.807Z,2.40
2022-08-04T10:44:29.136Z,2.03
2022-08-04T10:47:14.511Z,2.72
2022-08-04T10:49:47.267Z,2.22
2022-08-04T10:52:18.591Z,2.22
2022-08-04T10:55:01.175Z,2.42
2022-08-04T10:57:40.890Z,2.10
2022-08-04T11:00:09.369Z,2.50
2022-08-04T11:02:44.671Z,2.28
2022-08-04T11:05:15.827Z,2.25
2022-08-04T11:07:44.879Z,2.25
2022-08-04T11:10:13.546Z,2.45
2022-08-04T11:12:43.077Z,2.30
2022-08-04T11:15:13.455Z,2.03
2022-08-04T11:17:45.121Z,3.20
2022-08-04T11:20:35.052Z,2.20
2022-08-04T11:23:02.963Z,2.72
2022-08-04T11:25:35.894Z,2.17
2022-08-04T11:28:12.089Z,1.90
2022-08-04T11:30:59.463Z,2.15
2022-08-04T11:33:26.532Z,2.88
2022-08-04T11:35:53.719Z,2.17
2022-08-04T11:38:23.892Z,2.50
2022-08-04T11:41:03.131Z,2.17
2022-08-04T11:44:01.956Z,2.38
2022-08-04T11:46:28.551Z,2.97
2022-08-04T11:49:01.788Z,1.80
2022-08-04T11:51:58.069Z,2.00
2022-08-04T11:54:25.479Z,2.17
2022-08-04T11:56:53.801Z,2.10
2022-08-04T11:59:23.021Z,1.83
2022-08-04T12:02:08.312Z,2.10
2022-08-04T12:04:38.311Z,2.30
2022-08-04T12:10:41.150Z,1.92
2022-08-04T12:13:50.804Z,2.47
2022-08-04T12:16:30.470Z,2.20
2022-08-04T12:19:08.267Z,2.22
2022-08-04T12:21:38.470Z,2.53
2022-08-04T12:24:15.577Z,2.40
2022-08-04T12:26:49.907Z,3.65
2022-08-04T12:29:19.407Z,3.83
2022-08-04T12:31:49.086Z,3.88
2022-08-04T12:34:19.051Z,3.70
2022-08-04T12:36:58.651Z,3.80
2022-08-04T12:40:29.117Z,3.80
2022-08-04T12:43:00.078Z,4.43
2022-08-04T12:45:28.780Z,3.42
2022-08-04T12:47:58.107Z,3.67
2022-08-04T12:50:25.632Z,4.05
2022-08-04T12:53:03.463Z,3.38
2022-08-04T12:55:33.397Z,3.50
2022-08-04T12:58:02.366Z,3.13
2022-08-04T13:00:39.698Z,3.85
2022-08-04T13:03:10.863Z,3.22
2022-08-04T13:05:39.754Z,2.97
2022-08-04T13:08:07.218Z,2.88
2022-08-04T13:10:38.844Z,3.35
2022-08-04T13:13:06.153Z,3.45
2022-08-04T13:15:47.195Z,3.00
2022-08-04T13:18:27.349Z,3.20
2022-08-04T13:20:57.919Z,3.10
2022-08-04T13:23:27.545Z,3.25
2022-08-04T13:26:43.121Z,3.08
2022-08-04T13:29:16.169Z,2.90
2022-08-04T13:31:52.422Z,2.65
2022-08-04T13:34:20.888Z,2.90
2022-08-04T13:36:52.110Z,2.47
2022-08-04T13:39:20.812Z,3.08
2022-08-04T13:41:56.957Z,3.53
2022-08-04T13:44:28.789Z,3.00
2022-08-04T13:46:57.601Z,3.17
2022-08-04T13:49:37.987Z,2.88
2022-08-04T13:52:12.091Z,3.20
2022-08-04T13:54:42.342Z,3.08
2022-08-04T13:57:15.301Z,2.65
2022-08-04T13:59:45.142Z,3.15
2022-08-04T14:02:33.657Z,2.47
2022-08-04T14:05:35.406Z,2.13
2022-08-04T14:08:26.558Z,2.30
2022-08-04T14:10:57.782Z,2.42
2022-08-04T14:13:40.983Z,1.98
2022-08-04T14:16:20.976Z,2.90
2022-08-04T14:18:57.043Z,2.28
2022-08-04T14:21:24.747Z,1.90
2022-08-04T14:23:57.909Z,1.95
2022-08-04T14:26:31.309Z,2.55
2022-08-04T14:29:27.574Z,2.50
2022-08-04T14:32:13.029Z,2.28
2022-08-04T14:34:45.309Z,2.80
2022-08-04T14:37:20.033Z,2.00
2022-08-04T14:40:08.861Z,2.70
2022-08-04T14:42:54.358Z,2.08
2022-08-04T14:45:37.021Z,2.22
2022-08-04T14:48:11.831Z,2.13
2022-08-04T14:50:43.225Z,1.90
2022-08-04T14:53:12.512Z,2.10
2022-08-04T14:55:42.503Z,2.58
2022-08-04T14:58:34.001Z,2.67
2022-08-04T15:01:11.827Z,2.80
2022-08-04T15:03:50.840Z,3.50
2022-08-04T15:06:23.257Z,2.85
2022-08-04T15:08:51.953Z,2.75
2022-08-04T15:11:23.076Z,2.35
2022-08-04T15:13:51.789Z,2.88
2022-08-04T15:16:19.614Z,1.90
2022-08-04T15:18:50.342Z,2.95
2022-08-04T15:21:22.213Z,2.30
2022-08-04T15:23:50.563Z,2.42
2022-08-04T15:26:30.647Z,2.20
2022-08-04T15:29:05.393Z,1.88
2022-08-04T15:32:07.953Z,2.00
2022-08-04T15:34:25.896Z,2.13
2022-08-04T15:37:02.438Z,1.85
2022-08-04T15:39:38.266Z,1.90
2022-08-04T15:42:20.844Z,3.22
2022-08-04T15:44:51.249Z,2.05
2022-08-04T15:47:18.610Z,2.45
2022-08-04T15:49:45.807Z,2.20
2022-08-04T15:52:18.148Z,2.90
2022-08-04T15:54:52.376Z,2.63
2022-08-04T15:58:03.392Z,2.17
2022-08-04T16:00:50.391Z,2.53
2022-08-04T16:03:55.320Z,2.13
2022-08-04T16:06:22.208Z,2.40
2022-08-04T16:08:57.788Z,2.10
2022-08-04T16:11:31.848Z,2.42
2022-08-04T16:13:58.954Z,2.47
2022-08-04T16:16:29.642Z,2.78
2022-08-04T16:19:05.244Z,2.80
2022-08-04T16:21:34.652Z,2.63
2022-08-04T16:24:39.315Z,2.22
2022-08-04T16:27:10.473Z,2.13
2022-08-04T16:29:40.538Z,2.30
2022-08-04T16:32:36.332Z,2.65
2022-08-04T16:35:04.976Z,2.60
2022-08-04T16:37:36.067Z,2.33
2022-08-04T16:40:35.734Z,2.30
2022-08-04T16:43:03.549Z,2.20
2022-08-04T16:45:43.176Z,2.78
2022-08-04T16:48:11.263Z,2.50
2022-08-04T16:51:09.807Z,2.90
2022-08-04T16:53:52.147Z,2.30
2022-08-04T16:56:33.397Z,2.45
2022-08-04T16:59:13.243Z,2.63
2022-08-04T17:01:50.562Z,2.10
2022-08-04T17:04:17.949Z,2.35
2022-08-04T17:06:49.454Z,2.08
2022-08-04T17:09:18.253Z,2.22
2022-08-04T17:11:47.629Z,2.00
2022-08-04T17:14:25.821Z,2.28
2022-08-04T17:16:55.030Z,2.40
2022-08-04T17:19:26.299Z,2.47
2022-08-04T17:22:02.905Z,2.15
2022-08-04T17:24:36.395Z,3.15
2022-08-04T17:28:19.501Z,3.25
2022-08-04T17:29:51.197Z,2.30
2022-08-04T17:32:22.873Z,3.13
2022-08-04T17:34:52.036Z,2.75
2022-08-04T17:37:38.204Z,2.60
2022-08-04T17:40:14.024Z,3.17
2022-08-04T17:42:41.819Z,2.80
2022-08-04T17:45:49.244Z,3.20
2022-08-04T17:47:56.937Z,3.13
2022-08-04T17:50:34.720Z,3.15
2022-08-04T17:53:12.251Z,2.63
2022-08-04T17:55:46.922Z,2.92
2022-08-04T17:58:22.979Z,3.10
2022-08-04T18:06:35.445Z,3.25
2022-08-04T18:12:14.953Z,3.72
2022-08-04T18:14:50.094Z,4.10
2022-08-04T18:18:21.551Z,4.18
2022-08-04T18:20:21.034Z,4.07
2022-08-04T18:22:50.298Z,4.25
2022-08-04T18:25:22.924Z,4.63
2022-08-04T18:28:13.944Z,4.07
2022-08-04T18:30:54.983Z,3.40
2022-08-04T18:33:37.730Z,3.40
2022-08-04T18:36:36.568Z,2.75
2022-08-04T18:38:55.629Z,2.80
2022-08-04T18:41:25.149Z,3.13
2022-08-04T18:43:55.945Z,3.80
2022-08-04T18:46:26.979Z,3.10
2022-08-04T18:48:54.465Z,3.10
2022-08-04T18:51:25.100Z,3.10
2022-08-04T18:53:58.874Z,3.10
2022-08-04T18:56:32.586Z,2.92
2022-08-04T18:59:01.840Z,2.97
2022-08-04T19:02:12.934Z,2.63
2022-08-04T19:04:33.265Z,3.58
2022-08-04T19:07:28.772Z,5.78
2022-08-04T19:09:57.247Z,3.47
2022-08-04T19:12:26.656Z,2.92
2022-08-04T19:15:08.999Z,3.55
2022-08-04T19:20:29.432Z,3.05
2022-08-04T19:24:26.265Z,3.00
2022-08-04T19:25:59.264Z,3.30
2022-08-04T19:28:33.962Z,3.20
2022-08-04T19:31:02.870Z,3.13
2022-08-04T19:33:55.415Z,3.10
2022-08-04T19:36:20.766Z,3.67
2022-08-04T19:38:56.165Z,5.07
2022-08-04T19:41:23.028Z,3.97
2022-08-04T19:43:53.878Z,3.83
2022-08-04T19:46:21.410Z,4.15
2022-08-04T19:51:38.839Z,14.10
2022-08-04T19:54:17.185Z,5.72
2022-08-04T19:56:50.479Z,4.65
2022-08-04T19:59:17.563Z,3.95
2022-08-04T20:01:45.703Z,3.67
2022-08-04T20:04:14.524Z,3.90
2022-08-04T20:06:42.608Z,3.45
2022-08-04T20:09:24.546Z,3.33
2022-08-04T20:11:54.022Z,4.32
2022-08-04T20:14:31.665Z,4.90
2022-08-04T20:17:09.758Z,3.10
2022-08-04T20:19:38.759Z,2.90
2022-08-04T20:22:08.619Z,3.20
2022-08-04T20:25:00.878Z,3.30
2022-08-04T20:27:59.455Z,3.08
2022-08-04T20:30:28.622Z,3.22
2022-08-04T20:32:55.808Z,4.03
2022-08-04T20:35:28.735Z,3.55
2022-08-04T20:38:00.476Z,3.30
2022-08-04T20:43:16.122Z,3.13
2022-08-04T20:45:57.068Z,2.53
2022-08-04T20:48:30.222Z,1.70
2022-08-04T20:51:00.810Z,1.73
2022-08-04T20:53:32.487Z,2.10
2022-08-04T20:56:19.145Z,2.08
2022-08-04T20:58:58.320Z,1.70
2022-08-04T21:01:30.057Z,2.00
2022-08-04T21:04:27.313Z,1.83
2022-08-04T21:06:57.328Z,1.88
2022-08-04T21:09:37.280Z,1.80
2022-08-04T21:12:10.414Z,1.88
2022-08-04T21:14:37.180Z,1.88
2022-08-04T21:17:04.116Z,3.25
2022-08-04T21:19:36.847Z,2.63
2022-08-04T21:22:10.589Z,2.17
2022-08-04T21:24:37.578Z,2.92
2022-08-04T21:27:09.846Z,2.55
2022-08-04T21:29:37.035Z,2.38
2022-08-04T21:32:07.824Z,3.20
2022-08-04T21:34:39.723Z,2.40
2022-08-04T21:37:09.396Z,2.85
2022-08-04T21:39:58.762Z,3.08
2022-08-04T21:42:29.143Z,3.28
2022-08-04T21:44:56.940Z,2.78
2022-08-04T21:47:23.990Z,2.50
2022-08-04T21:49:55.992Z,1.88
2022-08-04T21:52:24.677Z,2.20
2022-08-04T21:54:54.226Z,2.05
2022-08-04T22:00:10.982Z,1.83
2022-08-04T22:02:47.014Z,2.45
2022-08-04T22:05:20.992Z,1.88
2022-08-04T22:07:52.052Z,1.55
2022-08-04T22:10:32.338Z,1.92
2022-08-04T22:13:06.735Z,2.25
2022-08-04T22:16:03.673Z,2.00
2022-08-04T22:18:24.633Z,2.55
2022-08-04T22:20:54.858Z,2.05
2022-08-04T22:23:24.279Z,2.92
2022-08-04T22:25:55.669Z,3.47
2022-08-04T22:28:25.449Z,3.80
2022-08-04T22:30:55.572Z,4.57
2022-08-04T22:33:23.127Z,4.28
2022-08-04T22:35:50.407Z,5.03
2022-08-04T22:38:37.048Z,4.90
2022-08-04T22:41:10.297Z,4.88
2022-08-04T22:43:38.018Z,6.07
2022-08-04T22:46:12.192Z,5.93
2022-08-04T22:48:43.093Z,5.30
2022-08-04T22:51:13.429Z,5.53
2022-08-04T22:53:40.741Z,5.07
2022-08-04T22:56:11.256Z,4.28
2022-08-04T22:58:40.098Z,4.25
2022-08-04T23:01:08.725Z,3.58
2022-08-04T23:03:37.548Z,4.07
2022-08-04T23:06:06.319Z,3.80
2022-08-04T23:08:36.283Z,3.50
2022-08-04T23:11:03.725Z,3.63
2022-08-04T23:13:31.768Z,3.33
2022-08-04T23:15:59.018Z,3.58
2022-08-04T23:18:26.724Z,3.50
2022-08-04T23:20:54.076Z,3.15
2022-08-04T23:23:21.192Z,4.15
2022-08-04T23:26:08.642Z,3.35
2022-08-04T23:28:37.551Z,3.55
2022-08-04T23:31:04.785Z,3.30
2022-08-04T23:33:49.429Z,4.38
2022-08-04T23:36:18.888Z,2.85
2022-08-04T23:38:59.082Z,3.67
2022-08-04T23:41:26.264Z,3.13
2022-08-04T23:44:13.477Z,3.92
2022-08-04T23:46:53.345Z,5.60
2022-08-04T23:49:20.597Z,4.00
2022-08-04T23:51:49.650Z,4.57
2022-08-04T23:54:23.468Z,3.97
2022-08-04T23:56:53.073Z,4.85
2022-08-04T23:59:52.420Z,4.75
